Time;durP1;ratioP1;P1;durP2;ratioP2;P2;SDS_P1;SDS_P2;PMS_P1;PMS_P2;Temp;Humidity;BMP_temperature;BMP_pressure;BME280_temperature;BME280_humidity;BME280_pressure;Samples;Min_cycle;Max_cycle;Signal;HPM_P1;HPM_P2
2023/03/27 00:01:06;;;;;;;16.08;12.00;;;6.20;99.90;;;;;;4995079;28;20027;-81
2023/03/27 00:03:33;;;;;;;15.95;11.48;;;6.20;99.90;;;;;;4997374;28;20113;-80
2023/03/27 00:06:00;;;;;;;19.38;13.30;;;6.20;99.90;;;;;;4995073;28;20058;-81
2023/03/27 00:08:27;;;;;;;17.40;12.38;;;6.20;99.90;;;;;;4998296;28;20026;-81
2023/03/27 00:10:54;;;;;;;14.73;11.10;;;6.30;99.90;;;;;;4994011;28;20041;-81
2023/03/27 00:13:19;;;;;;;15.50;11.57;;;6.30;99.90;;;;;;4993878;28;20047;-80
2023/03/27 00:15:46;;;;;;;17.63;12.93;;;6.20;99.90;;;;;;4996570;28;20046;-84
2023/03/27 00:18:12;;;;;;;16.17;12.13;;;6.20;99.90;;;;;;4993907;28;20027;-82
2023/03/27 00:20:38;;;;;;;18.20;12.38;;;6.20;99.90;;;;;;4991738;28;20053;-81
2023/03/27 00:23:08;;;;;;;15.40;12.35;;;6.20;99.90;;;;;;4993763;28;20636;-82
2023/03/27 00:25:34;;;;;;;15.20;10.60;;;6.10;99.90;;;;;;4993711;28;20029;-83
2023/03/27 00:28:00;;;;;;;14.45;11.15;;;6.10;99.90;;;;;;4993903;28;20057;-81
2023/03/27 00:30:28;;;;;;;15.18;10.75;;;6.10;99.90;;;;;;4994594;28;20353;-83
2023/03/27 00:32:57;;;;;;;;;;;6.10;99.90;;;;;;4996178;28;20088;-81
2023/03/27 00:35:25;;;;;;;14.15;10.60;;;6.00;99.90;;;;;;5005089;28;20390;-79
2023/03/27 00:37:51;;;;;;;13.55;10.68;;;6.00;99.90;;;;;;4994148;28;20023;-80
2023/03/27 00:40:17;;;;;;;15.52;10.68;;;6.00;99.90;;;;;;4993486;28;20014;-80
2023/03/27 00:42:45;;;;;;;17.02;10.55;;;6.00;99.90;;;;;;4993201;28;20030;-81
2023/03/27 00:45:22;;;;;;;12.60;9.15;;;6.00;99.90;;;;;;4995866;28;20018;-80
2023/03/27 00:47:52;;;;;;;;;;;6.00;99.90;;;;;;4998433;28;20026;-80
2023/03/27 00:50:24;;;;;;;15.05;9.57;;;5.90;99.90;;;;;;5000016;28;20280;-80
2023/03/27 00:53:16;;;;;;;10.13;8.18;;;5.90;99.90;;;;;;4994957;28;20038;-81
2023/03/27 00:55:47;;;;;;;11.07;9.35;;;5.90;99.90;;;;;;4990089;28;20026;-80
2023/03/27 00:58:20;;;;;;;11.18;9.20;;;5.90;99.90;;;;;;5001686;28;20018;-81
2023/03/27 01:00:52;;;;;;;13.10;9.85;;;5.90;99.90;;;;;;4998955;28;20018;-80
2023/03/27 01:03:19;;;;;;;11.70;8.57;;;5.80;99.90;;;;;;4994999;28;20037;-79
2023/03/27 01:05:46;;;;;;;11.35;8.70;;;5.80;99.90;;;;;;4996276;28;20046;-80
2023/03/27 01:08:14;;;;;;;11.15;7.72;;;5.80;99.90;;;;;;4994533;28;20399;-79
2023/03/27 01:11:24;;;;;;;9.63;7.55;;;5.80;99.90;;;;;;4994288;28;20033;-79
2023/03/27 01:14:09;;;;;;;8.85;7.30;;;5.80;99.90;;;;;;4989188;28;20051;-81
2023/03/27 01:16:44;;;;;;;11.38;9.35;;;5.80;99.90;;;;;;5011933;28;20065;-80
2023/03/27 01:19:12;;;;;;;8.63;6.72;;;5.80;99.90;;;;;;5015600;28;20096;-79
2023/03/27 01:21:50;;;;;;;10.35;7.60;;;5.70;99.90;;;;;;4996274;28;20034;-79
2023/03/27 01:24:47;;;;;;;11.15;7.35;;;5.70;99.90;;;;;;4994704;28;20488;-81
2023/03/27 01:27:17;;;;;;;12.30;8.38;;;5.70;99.90;;;;;;4993492;28;20030;-79
2023/03/27 01:29:56;;;;;;;10.38;7.50;;;5.70;99.90;;;;;;4991980;28;20143;-81
2023/03/27 01:32:43;;;;;;;10.20;8.13;;;5.80;99.90;;;;;;4993370;28;20384;-81
2023/03/27 01:35:24;;;;;;;10.25;8.02;;;5.80;99.90;;;;;;4993379;28;20026;-81
2023/03/27 01:38:02;;;;;;;10.80;8.55;;;5.80;99.90;;;;;;4993141;28;20546;-78
2023/03/27 01:40:34;;;;;;;12.60;8.70;;;5.90;99.90;;;;;;4992339;28;20030;-81
2023/03/27 01:43:10;;;;;;;11.05;8.70;;;5.90;99.90;;;;;;4994426;28;20034;-80
2023/03/27 01:46:01;;;;;;;14.73;9.13;;;5.90;99.90;;;;;;4992133;28;20387;-80
2023/03/27 01:48:42;;;;;;;8.57;7.68;;;5.90;99.90;;;;;;5002765;28;20058;-79
2023/03/27 01:51:15;;;;;;;10.88;8.32;;;5.90;99.90;;;;;;4990738;28;20031;-80
2023/03/27 01:53:48;;;;;;;10.35;7.55;;;5.90;99.90;;;;;;4993685;28;20093;-79
2023/03/27 01:56:37;;;;;;;9.48;7.68;;;5.90;99.90;;;;;;4992987;28;20027;-80
2023/03/27 01:59:10;;;;;;;8.90;7.22;;;5.80;99.90;;;;;;5007731;28;20094;-81
2023/03/27 02:01:42;;;;;;;11.35;8.00;;;5.70;99.90;;;;;;4999163;28;20034;-80
2023/03/27 02:04:20;;;;;;;10.35;7.25;;;5.70;99.90;;;;;;4998278;28;20019;-80
2023/03/27 02:07:10;;;;;;;13.73;9.80;;;5.70;99.90;;;;;;4996916;28;20038;-81
2023/03/27 02:09:49;;;;;;;10.23;7.85;;;5.70;99.90;;;;;;4983265;28;20022;-81
2023/03/27 02:12:20;;;;;;;10.88;8.75;;;5.70;99.90;;;;;;4997653;28;20496;-81
2023/03/27 02:14:56;;;;;;;11.35;9.07;;;5.60;99.90;;;;;;5016635;28;20037;-80
2023/03/27 02:17:24;;;;;;;12.57;9.52;;;5.70;99.90;;;;;;4999498;28;20126;-83
2023/03/27 02:20:09;;;;;;;11.40;9.20;;;5.70;99.90;;;;;;4995175;28;20029;-82
2023/03/27 02:22:40;;;;;;;15.02;9.40;;;5.70;99.90;;;;;;4996153;28;20034;-81
2023/03/27 02:25:27;;;;;;;16.55;12.52;;;5.80;99.90;;;;;;4996412;28;20377;-81
2023/03/27 02:28:17;;;;;;;17.35;13.35;;;5.80;99.90;;;;;;5010107;28;20019;-81
2023/03/27 02:30:46;;;;;;;15.02;12.38;;;5.80;99.90;;;;;;5008280;28;20018;-82
2023/03/27 02:33:22;;;;;;;15.48;13.10;;;5.80;99.90;;;;;;5004447;28;20033;-80
2023/03/27 02:36:12;;;;;;;22.92;15.50;;;5.80;99.90;;;;;;5005804;28;20387;-81
2023/03/27 02:38:54;;;;;;;17.98;13.55;;;5.80;99.90;;;;;;4994652;28;20117;-80
2023/03/27 02:42:05;;;;;;;21.90;16.33;;;5.80;99.90;;;;;;4996285;28;20026;-81
2023/03/27 02:44:40;;;;;;;21.70;15.02;;;5.80;99.90;;;;;;4932635;29;20092;-81
2023/03/27 02:47:08;;;;;;;21.63;15.93;;;5.80;99.90;;;;;;4936463;29;20071;-81
2023/03/27 02:49:48;;;;;;;22.17;17.77;;;5.80;99.90;;;;;;4921620;29;20512;-80
2023/03/27 02:52:21;;;;;;;19.95;15.15;;;5.80;99.90;;;;;;4929418;29;20551;-82
2023/03/27 02:54:52;;;;;;;20.52;15.68;;;5.80;99.90;;;;;;4943886;29;20544;-80
2023/03/27 02:57:25;;;;;;;15.65;11.65;;;5.90;99.90;;;;;;4944790;29;20067;-79
2023/03/27 02:59:55;;;;;;;19.75;14.75;;;5.70;99.90;;;;;;4948062;29;20030;-79
2023/03/27 03:02:26;;;;;;;17.50;12.95;;;5.60;99.90;;;;;;4927492;29;20032;-80
2023/03/27 03:05:03;;;;;;;20.98;16.10;;;5.60;99.90;;;;;;4935770;29;20032;-80
2023/03/27 03:07:29;;;;;;;21.63;15.77;;;5.60;99.90;;;;;;4937310;29;20043;-82
2023/03/27 03:09:55;;;;;;;23.35;16.23;;;5.60;99.90;;;;;;4935544;29;20039;-80
2023/03/27 03:12:22;;;;;;;21.20;13.90;;;5.60;99.90;;;;;;4920033;29;20143;-80
2023/03/27 03:14:48;;;;;;;23.10;15.70;;;5.60;99.90;;;;;;4957552;28;20069;-81
2023/03/27 03:17:14;;;;;;;22.65;16.08;;;5.60;99.90;;;;;;5007436;28;20025;-80
2023/03/27 03:19:41;;;;;;;21.83;15.57;;;5.60;99.90;;;;;;4996002;28;20053;-81
2023/03/27 03:22:07;;;;;;;23.50;15.52;;;5.60;99.90;;;;;;4994240;28;20022;-80
2023/03/27 03:24:40;;;;;;;20.63;14.10;;;5.60;99.90;;;;;;5005585;28;20538;-81
2023/03/27 03:27:07;;;;;;;20.52;14.88;;;5.60;99.90;;;;;;4994462;28;20022;-82
2023/03/27 03:29:35;;;;;;;19.02;14.32;;;5.50;99.90;;;;;;5009142;28;20365;-82
2023/03/27 03:32:05;;;;;;;18.15;13.27;;;5.50;99.90;;;;;;4993605;28;20027;-80
2023/03/27 03:34:34;;;;;;;23.48;16.15;;;5.50;99.90;;;;;;4994717;28;20439;-82
2023/03/27 03:37:00;;;;;;;23.02;14.80;;;5.50;99.90;;;;;;4995113;28;20022;-80
2023/03/27 03:39:26;;;;;;;25.52;15.23;;;5.50;99.90;;;;;;5008653;28;20318;-80
2023/03/27 03:41:52;;;;;;;24.42;17.23;;;5.60;99.90;;;;;;4992875;28;20489;-81
2023/03/27 03:44:18;;;;;;;21.17;14.23;;;5.60;99.90;;;;;;4993490;28;20022;-79
2023/03/27 03:46:44;;;;;;;26.27;17.77;;;5.60;99.90;;;;;;4995626;28;20026;-82
2023/03/27 03:49:10;;;;;;;26.23;15.93;;;5.60;99.90;;;;;;4995951;28;20026;-81
2023/03/27 03:51:36;;;;;;;20.95;13.98;;;5.60;99.90;;;;;;4994266;28;20034;-81
2023/03/27 03:54:04;;;;;;;23.23;14.40;;;5.60;99.90;;;;;;4998502;28;20031;-80
2023/03/27 03:56:30;;;;;;;22.90;14.82;;;5.50;99.90;;;;;;4994787;28;20484;-79
2023/03/27 03:58:57;;;;;;;22.55;14.20;;;5.60;99.90;;;;;;4996648;28;20026;-81
2023/03/27 04:01:23;;;;;;;18.38;12.30;;;5.60;99.90;;;;;;4998846;28;20547;-80
2023/03/27 04:03:49;;;;;;;23.35;12.13;;;5.50;99.90;;;;;;4995826;28;20026;-81
2023/03/27 04:06:20;;;;;;;21.13;12.65;;;5.50;99.90;;;;;;5005861;28;20094;-81
2023/03/27 04:08:46;;;;;;;18.58;13.63;;;5.50;99.90;;;;;;4995716;28;20026;-80
2023/03/27 04:11:12;;;;;;;20.33;13.13;;;5.40;99.90;;;;;;4993365;28;20504;-80
2023/03/27 04:13:38;;;;;;;19.10;13.32;;;5.40;99.90;;;;;;4994206;28;20077;-81
2023/03/27 04:16:04;;;;;;;23.88;12.95;;;5.40;99.90;;;;;;4993579;28;20500;-81
2023/03/27 04:18:33;;;;;;;19.63;12.07;;;5.40;99.90;;;;;;4993281;28;20453;-80
2023/03/27 04:21:00;;;;;;;19.88;12.10;;;5.50;99.90;;;;;;4995959;28;20022;-79
2023/03/27 04:23:29;;;;;;;18.77;11.13;;;5.50;99.90;;;;;;5006822;28;20036;-82
2023/03/27 04:25:59;;;;;;;21.45;12.38;;;5.60;99.90;;;;;;4997469;28;20064;-82
2023/03/27 04:28:33;;;;;;;19.40;12.20;;;5.70;99.90;;;;;;5015277;28;20045;-80
2023/03/27 04:31:00;;;;;;;22.52;13.90;;;5.70;99.90;;;;;;5004785;28;20015;-79
2023/03/27 04:33:26;;;;;;;25.52;14.07;;;5.70;99.90;;;;;;4995995;28;20104;-80
2023/03/27 04:36:22;;;;;;;22.70;12.82;;;5.60;99.90;;;;;;4995156;28;20439;-81
2023/03/27 04:38:48;;;;;;;19.42;13.40;;;5.70;99.90;;;;;;4973826;28;20034;-82
2023/03/27 04:41:14;;;;;;;21.98;13.38;;;5.80;99.90;;;;;;4999442;28;20507;-81
2023/03/27 04:43:44;;;;;;;23.10;14.07;;;5.90;99.90;;;;;;5001322;28;20031;-81
2023/03/27 04:46:11;;;;;;;22.77;12.80;;;5.80;99.90;;;;;;4997830;28;20069;-81
2023/03/27 04:48:37;;;;;;;21.40;12.93;;;5.80;99.90;;;;;;4991989;28;20042;-80
2023/03/27 04:51:04;;;;;;;21.85;13.13;;;5.90;99.90;;;;;;4989454;28;20025;-82
2023/03/27 04:53:31;;;;;;;18.90;12.57;;;6.00;99.90;;;;;;4997763;28;20034;-80
2023/03/27 04:55:57;;;;;;;21.83;14.47;;;6.00;99.90;;;;;;4998597;28;20023;-82
2023/03/27 04:58:24;;;;;;;23.75;12.63;;;6.10;99.90;;;;;;4993825;28;20036;-81
2023/03/27 05:00:53;;;;;;;;;;;6.30;99.90;;;;;;4992747;28;20029;-82
2023/03/27 05:03:19;;;;;;;18.30;12.10;;;6.30;99.90;;;;;;4993605;28;20256;-82
2023/03/27 05:05:51;;;;;;;20.92;12.85;;;6.40;99.90;;;;;;4992639;28;20065;-80
2023/03/27 05:08:18;;;;;;;21.65;13.07;;;6.40;99.90;;;;;;4992438;28;20056;-80
2023/03/27 05:10:45;;;;;;;16.20;10.85;;;6.40;99.90;;;;;;4993344;28;20093;-80
2023/03/27 05:13:11;;;;;;;17.60;11.80;;;6.40;99.90;;;;;;4992725;28;20037;-80
2023/03/27 05:15:37;;;;;;;21.38;12.82;;;6.40;99.90;;;;;;4994435;28;20042;-80
2023/03/27 05:18:05;;;;;;;19.85;13.20;;;6.40;99.90;;;;;;4996937;28;20029;-80
2023/03/27 05:20:31;;;;;;;19.70;12.75;;;6.30;99.90;;;;;;4996475;28;20030;-81
2023/03/27 05:22:56;;;;;;;20.83;13.38;;;6.20;99.90;;;;;;4999133;28;20040;-81
2023/03/27 05:25:23;;;;;;;17.00;11.20;;;6.10;99.90;;;;;;5000852;28;20073;-81
2023/03/27 05:27:50;;;;;;;17.85;11.02;;;6.10;99.90;;;;;;4999466;28;20050;-81
2023/03/27 05:30:19;;;;;;;18.13;11.35;;;6.00;99.90;;;;;;4994893;28;20502;-82
2023/03/27 05:32:50;;;;;;;17.83;12.07;;;5.80;99.90;;;;;;4992821;28;20042;-82
2023/03/27 05:35:18;;;;;;;22.73;12.73;;;5.80;99.90;;;;;;4994403;28;20030;-83
2023/03/27 05:37:46;;;;;;;19.35;10.70;;;5.80;99.90;;;;;;4993791;28;20032;-83
2023/03/27 05:40:14;;;;;;;16.17;10.73;;;5.90;99.90;;;;;;4994735;28;20034;-83
2023/03/27 05:42:44;;;;;;;;;;;5.80;99.90;;;;;;5006214;28;21404;-82
2023/03/27 05:45:11;;;;;;;19.15;10.95;;;5.90;99.90;;;;;;4999407;28;20326;-81
2023/03/27 05:47:47;;;;;;;;;;;5.80;99.90;;;;;;4997955;28;20514;-81
2023/03/27 05:50:14;;;;;;;19.95;11.90;;;5.80;99.90;;;;;;4997381;28;19964;-82
2023/03/27 05:52:43;;;;;;;21.60;12.10;;;5.80;99.90;;;;;;4997832;28;20038;-83
2023/03/27 05:55:09;;;;;;;19.17;11.65;;;5.90;99.90;;;;;;4997527;28;20038;-82
2023/03/27 05:57:40;;;;;;;19.85;11.43;;;5.90;99.90;;;;;;4988169;28;20027;-82
2023/03/27 06:00:10;;;;;;;18.88;11.38;;;5.90;99.90;;;;;;4996702;28;20085;-83
2023/03/27 06:02:42;;;;;;;16.45;10.00;;;5.80;99.90;;;;;;4986970;28;20069;-83
2023/03/27 06:05:15;;;;;;;16.52;10.52;;;5.80;99.90;;;;;;4998340;28;20026;-82
2023/03/27 06:07:45;;;;;;;17.35;12.05;;;5.80;99.90;;;;;;4996372;28;20443;-81
2023/03/27 06:10:14;;;;;;;19.77;11.85;;;5.80;99.90;;;;;;4996276;28;20116;-83
2023/03/27 06:12:40;;;;;;;20.58;12.27;;;5.80;99.90;;;;;;4998401;28;20041;-80
2023/03/27 06:15:08;;;;;;;17.65;12.85;;;5.80;99.90;;;;;;4997604;28;20105;-82
2023/03/27 06:17:35;;;;;;;21.48;12.73;;;5.90;99.90;;;;;;4998072;28;20037;-83
2023/03/27 06:20:09;;;;;;;17.63;11.60;;;6.00;99.90;;;;;;4997689;28;20038;-82
2023/03/27 06:22:42;;;;;;;19.63;13.05;;;6.10;99.90;;;;;;5001197;28;20029;-82
2023/03/27 06:25:09;;;;;;;21.70;12.75;;;6.10;99.90;;;;;;5001539;28;20031;-82
2023/03/27 06:27:34;;;;;;;24.40;13.95;;;6.10;99.90;;;;;;4999962;28;20031;-81
2023/03/27 06:30:00;;;;;;;33.28;13.45;;;6.00;99.90;;;;;;5001650;28;20026;-81
2023/03/27 06:32:26;;;;;;;20.35;14.05;;;6.00;99.90;;;;;;5000585;28;20030;-82
2023/03/27 06:34:53;;;;;;;20.52;13.85;;;6.00;99.90;;;;;;5000274;28;20038;-81
2023/03/27 06:37:19;;;;;;;22.03;14.93;;;6.00;99.90;;;;;;4995232;28;20042;-81
2023/03/27 06:39:45;;;;;;;19.90;13.35;;;6.00;99.90;;;;;;5018041;28;20371;-82
2023/03/27 06:42:11;;;;;;;19.48;12.07;;;6.00;99.90;;;;;;5008159;28;20095;-81
2023/03/27 06:44:37;;;;;;;15.95;11.20;;;6.00;99.90;;;;;;5000242;28;20026;-81
2023/03/27 06:47:03;;;;;;;21.23;12.40;;;6.00;99.90;;;;;;4997411;28;20484;-82
2023/03/27 06:49:29;;;;;;;15.63;9.82;;;6.00;99.90;;;;;;5004050;28;20018;-83
2023/03/27 06:51:55;;;;;;;16.95;11.65;;;6.00;99.90;;;;;;5005800;28;20076;-82
2023/03/27 06:54:21;;;;;;;12.50;8.38;;;6.00;99.90;;;;;;5006396;28;20030;-82
2023/03/27 06:56:47;;;;;;;12.70;8.45;;;6.10;99.90;;;;;;5007035;28;20056;-83
2023/03/27 06:59:13;;;;;;;12.68;8.25;;;6.20;99.90;;;;;;5011179;28;20101;-83
2023/03/27 07:01:38;;;;;;;12.68;8.68;;;6.20;99.90;;;;;;5009220;28;20083;-84
2023/03/27 07:04:05;;;;;;;16.42;10.13;;;6.30;99.90;;;;;;4997672;28;20037;-82
2023/03/27 07:06:31;;;;;;;13.05;7.70;;;6.40;99.90;;;;;;4997527;28;20022;-83
2023/03/27 07:08:57;;;;;;;12.23;8.77;;;6.40;99.90;;;;;;5007550;28;20041;-81
2023/03/27 07:11:25;;;;;;;13.75;9.30;;;6.50;99.90;;;;;;5008624;28;20019;-83
2023/03/27 07:13:55;;;;;;;23.65;9.65;;;6.70;99.90;;;;;;5010863;28;20294;-83
2023/03/27 07:16:21;;;;;;;12.95;9.63;;;6.80;99.90;;;;;;5009768;28;20126;-83
2023/03/27 07:18:47;;;;;;;18.17;10.75;;;6.80;99.90;;;;;;5004852;28;20030;-82
2023/03/27 07:21:14;;;;;;;14.93;9.88;;;6.90;99.90;;;;;;4997837;28;20018;-83
2023/03/27 07:23:40;;;;;;;14.32;9.60;;;7.10;99.90;;;;;;4996586;28;20033;-82
2023/03/27 07:26:06;;;;;;;14.50;9.43;;;7.10;99.90;;;;;;4998734;28;20029;-82
2023/03/27 07:28:32;;;;;;;13.55;8.18;;;7.20;99.90;;;;;;4995837;28;20108;-83
2023/03/27 07:30:58;;;;;;;15.02;10.15;;;7.20;99.90;;;;;;4998119;28;20022;-83
2023/03/27 07:33:27;;;;;;;12.57;9.10;;;7.30;99.90;;;;;;4996061;28;20122;-83
2023/03/27 07:35:53;;;;;;;17.75;11.20;;;7.40;99.90;;;;;;4996739;28;20018;-82
2023/03/27 07:38:19;;;;;;;14.57;9.80;;;7.40;99.90;;;;;;4997492;28;20033;-81
2023/03/27 07:40:45;;;;;;;11.88;9.10;;;7.50;99.90;;;;;;4996718;28;20026;-83
2023/03/27 07:43:12;;;;;;;12.32;8.95;;;7.60;99.90;;;;;;4996316;28;20465;-83
2023/03/27 07:45:38;;;;;;;10.88;7.70;;;7.70;99.90;;;;;;4997020;28;20030;-82
2023/03/27 07:48:09;;;;;;;11.25;7.82;;;7.90;99.90;;;;;;4997159;28;20022;-83
2023/03/27 07:50:36;;;;;;;13.90;9.30;;;8.10;99.90;;;;;;4999458;28;20022;-82
2023/03/27 07:53:05;;;;;;;13.85;9.02;;;8.30;99.90;;;;;;4995725;28;20551;-82
2023/03/27 07:55:31;;;;;;;11.35;8.25;;;8.40;99.90;;;;;;4977703;28;20082;-83
2023/03/27 07:57:57;;;;;;;12.70;9.35;;;8.60;99.90;;;;;;4989670;28;20034;-82
2023/03/27 08:00:23;;;;;;;11.43;7.97;;;8.90;99.90;;;;;;4995750;28;20092;-82
2023/03/27 08:02:49;;;;;;;12.10;9.00;;;9.10;99.90;;;;;;4999343;28;20384;-81
2023/03/27 08:05:16;;;;;;;13.27;9.90;;;9.10;99.90;;;;;;5003480;28;20037;-82
2023/03/27 08:07:44;;;;;;;10.90;7.03;;;9.00;99.90;;;;;;4991331;28;20436;-81
2023/03/27 08:10:11;;;;;;;13.02;7.97;;;9.00;99.90;;;;;;4995315;28;20277;-81
2023/03/27 08:12:38;;;;;;;11.75;8.18;;;8.80;99.90;;;;;;5004222;28;20034;-83
2023/03/27 08:15:05;;;;;;;13.70;8.23;;;8.70;99.90;;;;;;4999549;28;20026;-82
2023/03/27 08:17:32;;;;;;;12.15;8.15;;;8.60;99.90;;;;;;4999682;28;20018;-84
2023/03/27 08:20:08;;;;;;;11.80;8.93;;;8.60;99.90;;;;;;4994748;28;20100;-83
2023/03/27 08:22:35;;;;;;;10.75;9.15;;;8.80;99.90;;;;;;4998336;28;20049;-83
2023/03/27 08:25:03;;;;;;;12.63;8.80;;;8.80;99.90;;;;;;5000226;28;20037;-84
2023/03/27 08:27:30;;;;;;;12.00;8.40;;;8.70;99.90;;;;;;5000858;28;20078;-83
2023/03/27 08:29:57;;;;;;;11.32;8.63;;;8.60;99.90;;;;;;5004841;28;20037;-85
2023/03/27 08:32:23;;;;;;;14.80;9.23;;;8.80;99.90;;;;;;5004416;28;20027;-85
2023/03/27 08:34:49;;;;;;;14.23;9.85;;;8.90;99.90;;;;;;5003631;28;20033;-83
2023/03/27 08:37:16;;;;;;;14.68;9.50;;;9.00;99.90;;;;;;5003693;28;20030;-89
2023/03/27 08:39:41;;;;;;;16.42;10.30;;;9.10;99.90;;;;;;5000754;28;20027;-86
2023/03/27 08:42:15;;;;;;;13.88;9.32;;;9.10;99.90;;;;;;4996076;28;20036;-84
2023/03/27 08:44:41;;;;;;;10.13;8.57;;;9.20;99.90;;;;;;4994367;28;20026;-86
2023/03/27 08:47:30;;;;;;;14.00;10.10;;;9.20;99.50;;;;;;4993246;28;20037;-82
2023/03/27 08:49:58;;;;;;;11.60;8.88;;;9.20;99.60;;;;;;4994257;28;20014;-82
2023/03/27 08:52:31;;;;;;;12.98;8.88;;;9.40;99.40;;;;;;4992985;28;20041;-83
2023/03/27 08:55:17;;;;;;;11.88;9.30;;;9.80;99.90;;;;;;4984247;28;20626;-84
2023/03/27 08:57:43;;;;;;;9.75;7.35;;;10.70;99.70;;;;;;4994025;28;20022;-83
2023/03/27 09:00:28;;;;;;;7.88;6.28;;;11.80;97.00;;;;;;5008523;28;20033;-85
2023/03/27 09:02:58;;;;;;;7.22;6.20;;;12.30;94.20;;;;;;4995498;28;20494;-84
2023/03/27 09:05:39;;;;;;;9.75;6.90;;;12.00;93.70;;;;;;4993964;28;20077;-87
2023/03/27 09:08:14;;;;;;;9.82;6.88;;;12.40;93.30;;;;;;4988629;28;20522;-85
2023/03/27 09:10:53;;;;;;;9.80;7.75;;;13.10;91.60;;;;;;4996958;28;20034;-85
2023/03/27 09:13:28;;;;;;;9.45;8.00;;;13.10;90.50;;;;;;4995618;28;20061;-84
2023/03/27 09:16:06;;;;;;;9.63;8.35;;;12.70;90.40;;;;;;5006652;28;20046;-80
2023/03/27 09:18:45;;;;;;;10.45;6.57;;;12.40;90.90;;;;;;5004546;28;20053;-80
2023/03/27 09:21:18;;;;;;;10.20;6.82;;;11.90;90.60;;;;;;4998674;28;20080;-80
2023/03/27 09:23:46;;;;;;;7.50;6.45;;;11.60;91.20;;;;;;4998401;28;20138;-80
2023/03/27 09:26:23;;;;;;;8.18;7.15;;;12.00;91.00;;;;;;4995057;28;20018;-83
2023/03/27 09:29:09;;;;;;;13.93;7.72;;;12.00;90.40;;;;;;4994819;28;20023;-82
2023/03/27 09:31:43;;;;;;;8.52;6.90;;;11.80;90.40;;;;;;5009855;28;20034;-84
2023/03/27 09:34:13;;;;;;;10.20;6.60;;;11.50;90.60;;;;;;4995127;28;20082;-83
2023/03/27 09:36:40;;;;;;;12.10;9.50;;;11.20;91.40;;;;;;4997490;28;20018;-83
2023/03/27 09:39:21;;;;;;;9.15;6.90;;;11.50;91.70;;;;;;4994397;28;20025;-84
2023/03/27 09:41:54;;;;;;;12.75;8.18;;;11.90;91.10;;;;;;4994616;28;20038;-82
2023/03/27 09:44:34;;;;;;;13.20;8.68;;;12.10;90.40;;;;;;4994775;28;20109;-82
2023/03/27 09:47:06;;;;;;;10.13;7.32;;;12.00;90.40;;;;;;5004530;28;20034;-79
2023/03/27 09:49:34;;;;;;;7.53;6.55;;;12.20;91.00;;;;;;4994252;28;20031;-80
2023/03/27 09:52:01;;;;;;;10.88;7.50;;;13.00;90.20;;;;;;4994209;28;20511;-81
2023/03/27 09:54:27;;;;;;;10.52;6.57;;;14.70;87.30;;;;;;4995506;28;20381;-82
2023/03/27 09:56:56;;;;;;;9.73;6.93;;;16.90;80.80;;;;;;4994618;28;20085;-83
2023/03/27 09:59:37;;;;;;;12.98;7.32;;;18.30;72.10;;;;;;4994226;28;20508;-81
2023/03/27 10:02:23;;;;;;;8.77;6.95;;;18.10;68.40;;;;;;4994517;28;20018;-83
2023/03/27 10:05:10;;;;;;;9.65;8.55;;;16.90;69.80;;;;;;4996286;28;20027;-82
2023/03/27 10:07:38;;;;;;;14.75;8.52;;;16.30;74.10;;;;;;4998948;28;20041;-79
2023/03/27 10:10:14;;;;;;;9.95;7.50;;;16.70;71.70;;;;;;4996001;28;20046;-81
2023/03/27 10:12:41;;;;;;;7.53;6.68;;;16.90;70.30;;;;;;5009153;28;20041;-83
2023/03/27 10:15:27;;;;;;;15.77;8.10;;;17.90;68.80;;;;;;4996026;28;20093;-82
2023/03/27 10:17:54;;;;;;;8.60;6.95;;;19.80;66.50;;;;;;4981737;28;20121;-85
2023/03/27 10:20:21;;;;;;;10.98;8.20;;;21.10;58.80;;;;;;4996876;28;20026;-84
2023/03/27 10:22:55;;;;;;;9.45;6.95;;;20.60;57.60;;;;;;4998933;28;20042;-85
2023/03/27 10:25:37;;;;;;;9.45;7.10;;;19.40;58.20;;;;;;4998292;28;20030;-82
2023/03/27 10:28:14;;;;;;;9.38;8.25;;;18.10;61.00;;;;;;4989563;28;20023;-82
2023/03/27 10:30:40;;;;;;;8.55;6.32;;;17.10;63.40;;;;;;4998991;28;20088;-84
2023/03/27 10:33:06;;;;;;;9.57;6.03;;;16.40;64.40;;;;;;4998724;28;20037;-82
2023/03/27 10:35:35;;;;;;;10.15;6.60;;;15.20;67.00;;;;;;5000776;28;20026;-83
2023/03/27 10:38:06;;;;;;;7.65;6.78;;;14.40;69.80;;;;;;5009199;28;20026;-83
2023/03/27 10:40:37;;;;;;;13.35;7.53;;;13.80;72.40;;;;;;4999616;28;20129;-82
2023/03/27 10:43:15;;;;;;;8.40;6.30;;;13.40;74.30;;;;;;4997887;28;20046;-84
2023/03/27 10:45:52;;;;;;;9.45;6.57;;;13.30;75.50;;;;;;4998460;28;20019;-82
2023/03/27 10:48:46;;;;;;;10.20;7.35;;;13.40;76.10;;;;;;4997187;28;20018;-85
2023/03/27 10:51:39;;;;;;;9.82;6.32;;;13.60;75.80;;;;;;4997144;28;20415;-84
2023/03/27 10:54:30;;;;;;;11.98;7.15;;;13.50;75.30;;;;;;4956921;28;20602;-81
2023/03/27 10:57:16;;;;;;;6.93;6.13;;;13.40;76.10;;;;;;4998449;28;20031;-83
2023/03/27 11:00:09;;;;;;;8.00;5.75;;;13.10;76.30;;;;;;4997784;28;20098;-83
2023/03/27 11:02:47;;;;;;;11.35;6.82;;;13.10;77.00;;;;;;4986649;28;20014;-81
2023/03/27 11:05:20;;;;;;;7.32;5.72;;;13.00;77.90;;;;;;4997440;28;20113;-81
2023/03/27 11:07:54;;;;;;;7.60;5.68;;;13.10;77.90;;;;;;4998953;28;20029;-81
2023/03/27 11:10:20;;;;;;;7.57;6.00;;;13.00;77.30;;;;;;4998039;28;20034;-81
2023/03/27 11:13:00;;;;;;;14.07;6.93;;;12.60;78.10;;;;;;4998107;28;20096;-80
2023/03/27 11:15:37;;;;;;;9.95;7.22;;;12.30;80.20;;;;;;4996508;28;20042;-80
2023/03/27 11:18:06;;;;;;;7.33;6.30;;;12.30;80.80;;;;;;4997713;28;20049;-82
2023/03/27 11:20:51;;;;;;;12.55;7.80;;;12.30;81.50;;;;;;4998178;28;20022;-80
2023/03/27 11:23:20;;;;;;;15.77;6.90;;;12.30;82.00;;;;;;4998772;28;20045;-82
2023/03/27 11:25:50;;;;;;;13.38;6.03;;;12.30;81.60;;;;;;4998292;28;20023;-82
2023/03/27 11:28:42;;;;;;;7.25;6.35;;;12.40;81.40;;;;;;4997831;28;20034;-82
2023/03/27 11:31:17;;;;;;;15.05;8.38;;;12.10;81.50;;;;;;5001611;28;20081;-82
2023/03/27 11:33:53;;;;;;;11.07;7.13;;;11.90;82.90;;;;;;5003076;28;20139;-83
2023/03/27 11:36:33;;;;;;;11.18;7.57;;;11.90;83.50;;;;;;5002674;28;20018;-81
2023/03/27 11:39:14;;;;;;;15.90;6.95;;;11.70;83.70;;;;;;4998672;28;20026;-86
2023/03/27 11:41:43;;;;;;;10.63;7.95;;;11.60;84.60;;;;;;5022510;28;20007;-82
2023/03/27 11:44:09;;;;;;;10.65;7.60;;;11.60;85.50;;;;;;5015210;28;20034;-82
2023/03/27 11:47:15;;;;;;;18.53;8.90;;;11.70;85.70;;;;;;5002318;28;20023;-86
2023/03/27 11:50:06;;;;;;;11.05;7.63;;;11.70;85.80;;;;;;5014071;28;20011;-83
2023/03/27 11:53:00;;;;;;;10.15;7.35;;;11.60;85.80;;;;;;5007442;28;20395;-81
2023/03/27 11:55:36;;;;;;;9.20;6.80;;;11.40;86.40;;;;;;4997529;28;20022;-80
2023/03/27 11:58:27;;;;;;;7.60;6.43;;;11.30;87.00;;;;;;5006475;28;20033;-85
2023/03/27 12:01:26;;;;;;;10.93;8.57;;;11.20;88.30;;;;;;5001734;28;20026;-88
2023/03/27 12:04:10;;;;;;;12.13;8.63;;;11.40;89.00;;;;;;5008418;28;20029;-86
2023/03/27 12:07:04;;;;;;;14.00;7.97;;;11.60;88.80;;;;;;4999617;28;20148;-83
2023/03/27 12:10:08;;;;;;;11.30;7.30;;;11.60;88.80;;;;;;4992777;28;20019;-86
2023/03/27 12:13:07;;;;;;;8.80;6.97;;;11.30;88.80;;;;;;4995331;28;20113;-88
2023/03/27 12:15:58;;;;;;;8.35;6.47;;;11.00;90.00;;;;;;5011413;28;20042;-86
2023/03/27 12:18:37;;;;;;;11.15;6.80;;;10.70;90.60;;;;;;5006118;28;20022;-84
2023/03/27 12:21:34;;;;;;;9.00;7.55;;;10.50;91.10;;;;;;5008324;28;20491;-89
2023/03/27 12:24:23;;;;;;;;;;;10.40;91.70;;;;;;4949251;29;20027;-88
2023/03/27 12:27:14;;;;;;;13.68;6.65;;;10.40;91.60;;;;;;4881502;29;19911;-88
2023/03/27 12:29:52;;;;;;;14.43;8.40;;;10.30;92.00;;;;;;4898804;29;20036;-88
2023/03/27 12:32:48;;;;;;;8.27;6.53;;;10.50;92.20;;;;;;4897514;29;20473;-88
2023/03/27 12:35:17;;;;;;;9.10;7.20;;;10.50;92.00;;;;;;4873480;29;20049;-88
2023/03/27 12:37:52;;;;;;;8.02;6.90;;;10.50;92.00;;;;;;4889098;29;20033;-85
2023/03/27 12:40:32;;;;;;;10.73;7.53;;;10.40;92.00;;;;;;4883765;29;20109;-84
2023/03/27 12:43:25;;;;;;;10.20;6.93;;;10.50;92.10;;;;;;4884350;29;20487;-84
2023/03/27 12:46:38;;;;;;;11.95;7.63;;;10.50;92.10;;;;;;4879615;29;20100;-84
2023/03/27 12:49:11;;;;;;;8.63;6.28;;;10.40;92.00;;;;;;4801676;29;20037;-83
2023/03/27 12:51:56;;;;;;;;;;;;;;;;;;;;;
2023/03/27 12:54:38;;;;;;;10.23;5.57;;;10.40;92.40;;;;;;4875490;29;20057;-85
2023/03/27 12:57:19;;;;;;;8.38;5.90;;;10.40;92.10;;;;;;4892236;29;20057;-85
2023/03/27 13:00:11;;;;;;;8.80;5.15;;;10.40;91.80;;;;;;4901212;29;20061;-86
2023/03/27 13:03:20;;;;;;;7.55;5.80;;;10.40;91.60;;;;;;4921702;29;20036;-85
2023/03/27 13:06:05;;;;;;;10.40;5.55;;;10.60;91.60;;;;;;4932579;28;20043;-85
2023/03/27 13:08:46;;;;;;;7.40;5.05;;;10.70;91.20;;;;;;4945402;28;20492;-83
2023/03/27 13:11:49;;;;;;;8.00;4.32;;;10.80;90.90;;;;;;4961087;28;20067;-89
2023/03/27 13:14:43;;;;;;;10.52;6.60;;;10.80;90.70;;;;;;4946115;29;20051;-86